sensor_id;sensor_type;location;lat;lon;timestamp;P1;durP1;ratioP1;P2;durP2;ratioP2
42186;SDS011;27858;51.414;0.018;2023-01-05T00:01:07;22.38;;;4.82;;
42186;SDS011;27858;51.414;0.018;2023-01-05T00:03:35;11.82;;;2.65;;
42186;SDS011;27858;51.414;0.018;2023-01-05T00:06:04;12.88;;;3.60;;
42186;SDS011;27858;51.414;0.018;2023-01-05T00:08:39;18.95;;;4.55;;
42186;SDS011;27858;51.414;0.018;2023-01-05T00:11:09;13.32;;;3.53;;
42186;SDS011;27858;51.414;0.018;2023-01-05T00:13:56;11.85;;;3.38;;
42186;SDS011;27858;51.414;0.018;2023-01-05T00:16:42;11.95;;;5.18;;
42186;SDS011;27858;51.414;0.018;2023-01-05T00:19:27;10.20;;;3.00;;
42186;SDS011;27858;51.414;0.018;2023-01-05T00:22:16;17.75;;;3.83;;
42186;SDS011;27858;51.414;0.018;2023-01-05T00:27:36;20.48;;;4.43;;
42186;SDS011;27858;51.414;0.018;2023-01-05T00:30:03;17.75;;;4.63;;
42186;SDS011;27858;51.414;0.018;2023-01-05T00:32:31;20.40;;;4.78;;
42186;SDS011;27858;51.414;0.018;2023-01-05T00:34:58;17.63;;;5.15;;
42186;SDS011;27858;51.414;0.018;2023-01-05T00:37:26;17.95;;;3.63;;
42186;SDS011;27858;51.414;0.018;2023-01-05T00:39:57;13.95;;;4.53;;
42186;SDS011;27858;51.414;0.018;2023-01-05T00:42:23;21.77;;;4.22;;
42186;SDS011;27858;51.414;0.018;2023-01-05T00:44:50;23.25;;;4.68;;
42186;SDS011;27858;51.414;0.018;2023-01-05T00:47:17;21.20;;;3.85;;
42186;SDS011;27858;51.414;0.018;2023-01-05T00:49:44;12.55;;;3.97;;
42186;SDS011;27858;51.414;0.018;2023-01-05T00:52:10;21.67;;;5.18;;
42186;SDS011;27858;51.414;0.018;2023-01-05T00:54:37;20.73;;;4.60;;
42186;SDS011;27858;51.414;0.018;2023-01-05T00:57:04;14.27;;;4.47;;
42186;SDS011;27858;51.414;0.018;2023-01-05T00:59:32;18.17;;;4.82;;
42186;SDS011;27858;51.414;0.018;2023-01-05T05:02:10;19.52;;;4.20;;
42186;SDS011;27858;51.414;0.018;2023-01-05T05:04:37;16.00;;;4.10;;
42186;SDS011;27858;51.414;0.018;2023-01-05T05:07:04;17.13;;;4.07;;
42186;SDS011;27858;51.414;0.018;2023-01-05T05:09:31;16.55;;;3.90;;
42186;SDS011;27858;51.414;0.018;2023-01-05T05:11:58;30.50;;;5.70;;
42186;SDS011;27858;51.414;0.018;2023-01-05T05:14:24;38.97;;;6.35;;
42186;SDS011;27858;51.414;0.018;2023-01-05T05:16:51;18.38;;;5.05;;
42186;SDS011;27858;51.414;0.018;2023-01-05T05:19:18;20.08;;;4.00;;
42186;SDS011;27858;51.414;0.018;2023-01-05T05:21:45;14.27;;;4.70;;
42186;SDS011;27858;51.414;0.018;2023-01-05T05:24:11;24.33;;;4.63;;
42186;SDS011;27858;51.414;0.018;2023-01-05T05:26:38;19.30;;;4.20;;
42186;SDS011;27858;51.414;0.018;2023-01-05T05:29:05;20.25;;;5.13;;
42186;SDS011;27858;51.414;0.018;2023-01-05T05:31:31;11.05;;;3.83;;
42186;SDS011;27858;51.414;0.018;2023-01-05T05:33:58;22.42;;;5.30;;
42186;SDS011;27858;51.414;0.018;2023-01-05T05:36:25;22.58;;;5.28;;
42186;SDS011;27858;51.414;0.018;2023-01-05T05:38:52;23.92;;;4.63;;
42186;SDS011;27858;51.414;0.018;2023-01-05T05:41:18;17.73;;;4.78;;
42186;SDS011;27858;51.414;0.018;2023-01-05T05:43:45;11.02;;;4.10;;
42186;SDS011;27858;51.414;0.018;2023-01-05T05:46:12;25.38;;;4.88;;
42186;SDS011;27858;51.414;0.018;2023-01-05T05:48:39;27.30;;;4.88;;
42186;SDS011;27858;51.414;0.018;2023-01-05T05:51:05;13.77;;;3.40;;
42186;SDS011;27858;51.414;0.018;2023-01-05T05:53:32;33.50;;;5.22;;
42186;SDS011;27858;51.414;0.018;2023-01-05T05:55:59;16.55;;;3.30;;
42186;SDS011;27858;51.414;0.018;2023-01-05T05:58:26;19.67;;;4.63;;
42186;SDS011;27858;51.414;0.018;2023-01-05T06:00:55;20.58;;;5.18;;
42186;SDS011;27858;51.414;0.018;2023-01-05T06:03:23;18.67;;;4.80;;
42186;SDS011;27858;51.414;0.018;2023-01-05T06:05:50;17.23;;;3.88;;
42186;SDS011;27858;51.414;0.018;2023-01-05T06:08:17;26.15;;;5.53;;
42186;SDS011;27858;51.414;0.018;2023-01-05T06:10:44;22.88;;;4.75;;
42186;SDS011;27858;51.414;0.018;2023-01-05T06:13:10;20.10;;;4.90;;
42186;SDS011;27858;51.414;0.018;2023-01-05T06:15:37;17.33;;;5.05;;
42186;SDS011;27858;51.414;0.018;2023-01-05T06:18:04;22.88;;;4.70;;
42186;SDS011;27858;51.414;0.018;2023-01-05T06:20:30;17.70;;;5.82;;
42186;SDS011;27858;51.414;0.018;2023-01-05T06:22:57;23.60;;;4.88;;
42186;SDS011;27858;51.414;0.018;2023-01-05T06:25:24;35.97;;;5.97;;
42186;SDS011;27858;51.414;0.018;2023-01-05T06:27:51;24.90;;;5.43;;
42186;SDS011;27858;51.414;0.018;2023-01-05T06:30:18;25.27;;;6.13;;
42186;SDS011;27858;51.414;0.018;2023-01-05T06:32:45;25.45;;;4.57;;
42186;SDS011;27858;51.414;0.018;2023-01-05T06:35:12;22.23;;;4.07;;
42186;SDS011;27858;51.414;0.018;2023-01-05T06:37:39;20.35;;;4.82;;
42186;SDS011;27858;51.414;0.018;2023-01-05T06:40:06;20.52;;;3.60;;
42186;SDS011;27858;51.414;0.018;2023-01-05T06:42:34;22.65;;;4.95;;
42186;SDS011;27858;51.414;0.018;2023-01-05T06:45:01;27.02;;;5.63;;
42186;SDS011;27858;51.414;0.018;2023-01-05T06:47:28;24.75;;;4.75;;
42186;SDS011;27858;51.414;0.018;2023-01-05T06:49:55;16.95;;;3.63;;
42186;SDS011;27858;51.414;0.018;2023-01-05T06:52:22;19.05;;;5.40;;
42186;SDS011;27858;51.414;0.018;2023-01-05T06:54:49;20.83;;;6.10;;
42186;SDS011;27858;51.414;0.018;2023-01-05T06:57:16;24.15;;;5.68;;
42186;SDS011;27858;51.414;0.018;2023-01-05T06:59:42;18.23;;;4.93;;
42186;SDS011;27858;51.414;0.018;2023-01-05T07:02:13;17.48;;;4.05;;
42186;SDS011;27858;51.414;0.018;2023-01-05T07:04:41;18.73;;;3.92;;
42186;SDS011;27858;51.414;0.018;2023-01-05T07:07:12;18.98;;;6.30;;
42186;SDS011;27858;51.414;0.018;2023-01-05T07:09:39;20.25;;;5.28;;
42186;SDS011;27858;51.414;0.018;2023-01-05T07:12:06;20.17;;;4.40;;
42186;SDS011;27858;51.414;0.018;2023-01-05T07:14:33;16.58;;;4.65;;
42186;SDS011;27858;51.414;0.018;2023-01-05T07:17:00;13.82;;;3.08;;
42186;SDS011;27858;51.414;0.018;2023-01-05T07:19:27;12.73;;;2.97;;
42186;SDS011;27858;51.414;0.018;2023-01-05T07:21:54;17.73;;;3.88;;
42186;SDS011;27858;51.414;0.018;2023-01-05T07:24:22;20.70;;;4.38;;
42186;SDS011;27858;51.414;0.018;2023-01-05T07:26:49;15.88;;;4.68;;
42186;SDS011;27858;51.414;0.018;2023-01-05T07:29:16;28.65;;;5.43;;
42186;SDS011;27858;51.414;0.018;2023-01-05T07:31:42;15.32;;;4.32;;
42186;SDS011;27858;51.414;0.018;2023-01-05T07:34:09;15.32;;;4.18;;
42186;SDS011;27858;51.414;0.018;2023-01-05T07:36:36;14.50;;;3.75;;
42186;SDS011;27858;51.414;0.018;2023-01-05T07:39:03;17.05;;;4.78;;
42186;SDS011;27858;51.414;0.018;2023-01-05T07:41:30;24.73;;;5.07;;
42186;SDS011;27858;51.414;0.018;2023-01-05T07:43:56;16.92;;;4.32;;
42186;SDS011;27858;51.414;0.018;2023-01-05T07:46:23;19.45;;;5.05;;
42186;SDS011;27858;51.414;0.018;2023-01-05T07:48:50;16.15;;;4.45;;
42186;SDS011;27858;51.414;0.018;2023-01-05T07:51:17;18.02;;;4.82;;
42186;SDS011;27858;51.414;0.018;2023-01-05T07:53:44;13.75;;;4.22;;
42186;SDS011;27858;51.414;0.018;2023-01-05T07:56:11;14.48;;;3.80;;
42186;SDS011;27858;51.414;0.018;2023-01-05T07:58:38;15.13;;;3.92;;
42186;SDS011;27858;51.414;0.018;2023-01-05T08:01:06;19.90;;;5.97;;
42186;SDS011;27858;51.414;0.018;2023-01-05T08:03:35;18.42;;;5.10;;
42186;SDS011;27858;51.414;0.018;2023-01-05T08:06:06;23.23;;;5.43;;
42186;SDS011;27858;51.414;0.018;2023-01-05T08:08:38;21.70;;;4.20;;
42186;SDS011;27858;51.414;0.018;2023-01-05T08:11:06;12.18;;;4.63;;
42186;SDS011;27858;51.414;0.018;2023-01-05T08:13:34;19.08;;;3.65;;
42186;SDS011;27858;51.414;0.018;2023-01-05T08:16:19;16.70;;;4.60;;
42186;SDS011;27858;51.414;0.018;2023-01-05T08:18:46;31.35;;;4.45;;
42186;SDS011;27858;51.414;0.018;2023-01-05T08:21:13;21.40;;;4.95;;
42186;SDS011;27858;51.414;0.018;2023-01-05T08:23:40;15.02;;;3.45;;
42186;SDS011;27858;51.414;0.018;2023-01-05T08:26:07;16.13;;;4.55;;
42186;SDS011;27858;51.414;0.018;2023-01-05T08:28:37;18.70;;;4.18;;
42186;SDS011;27858;51.414;0.018;2023-01-05T08:31:05;21.73;;;5.15;;
42186;SDS011;27858;51.414;0.018;2023-01-05T08:33:35;17.90;;;4.40;;
42186;SDS011;27858;51.414;0.018;2023-01-05T08:36:06;16.52;;;4.95;;
42186;SDS011;27858;51.414;0.018;2023-01-05T08:38:34;20.10;;;4.20;;
42186;SDS011;27858;51.414;0.018;2023-01-05T08:41:01;13.10;;;2.95;;
42186;SDS011;27858;51.414;0.018;2023-01-05T08:43:28;17.42;;;5.07;;
42186;SDS011;27858;51.414;0.018;2023-01-05T08:45:55;14.63;;;4.10;;
42186;SDS011;27858;51.414;0.018;2023-01-05T08:48:22;13.88;;;4.13;;
42186;SDS011;27858;51.414;0.018;2023-01-05T08:50:48;16.65;;;4.90;;
42186;SDS011;27858;51.414;0.018;2023-01-05T08:53:15;12.95;;;4.22;;
42186;SDS011;27858;51.414;0.018;2023-01-05T08:55:42;13.52;;;4.15;;
42186;SDS011;27858;51.414;0.018;2023-01-05T08:58:08;11.63;;;3.50;;
42186;SDS011;27858;51.414;0.018;2023-01-05T09:00:35;21.80;;;3.95;;
42186;SDS011;27858;51.414;0.018;2023-01-05T09:03:02;15.75;;;4.20;;
42186;SDS011;27858;51.414;0.018;2023-01-05T09:05:29;16.15;;;4.82;;
42186;SDS011;27858;51.414;0.018;2023-01-05T09:07:57;14.10;;;3.75;;
42186;SDS011;27858;51.414;0.018;2023-01-05T09:10:23;17.23;;;5.50;;
42186;SDS011;27858;51.414;0.018;2023-01-05T09:12:50;12.50;;;3.33;;
42186;SDS011;27858;51.414;0.018;2023-01-05T09:15:17;13.70;;;3.85;;
42186;SDS011;27858;51.414;0.018;2023-01-05T09:17:44;30.90;;;4.28;;
42186;SDS011;27858;51.414;0.018;2023-01-05T09:20:10;15.43;;;3.50;;
42186;SDS011;27858;51.414;0.018;2023-01-05T09:22:37;13.75;;;3.42;;
42186;SDS011;27858;51.414;0.018;2023-01-05T09:25:04;13.27;;;3.67;;
42186;SDS011;27858;51.414;0.018;2023-01-05T09:27:31;16.60;;;4.40;;
42186;SDS011;27858;51.414;0.018;2023-01-05T09:29:58;15.98;;;3.28;;
42186;SDS011;27858;51.414;0.018;2023-01-05T09:32:25;13.48;;;3.20;;
42186;SDS011;27858;51.414;0.018;2023-01-05T09:34:51;10.15;;;2.90;;
42186;SDS011;27858;51.414;0.018;2023-01-05T09:37:18;12.73;;;4.13;;
42186;SDS011;27858;51.414;0.018;2023-01-05T09:39:45;9.90;;;3.60;;
42186;SDS011;27858;51.414;0.018;2023-01-05T09:42:16;11.48;;;3.53;;
42186;SDS011;27858;51.414;0.018;2023-01-05T09:44:50;12.88;;;3.72;;
42186;SDS011;27858;51.414;0.018;2023-01-05T09:47:35;4.57;;;2.28;;
42186;SDS011;27858;51.414;0.018;2023-01-05T09:50:04;13.18;;;3.15;;
42186;SDS011;27858;51.414;0.018;2023-01-05T09:52:33;11.13;;;2.30;;
42186;SDS011;27858;51.414;0.018;2023-01-05T09:55:16;7.80;;;2.58;;
42186;SDS011;27858;51.414;0.018;2023-01-05T09:57:52;9.20;;;2.65;;
42186;SDS011;27858;51.414;0.018;2023-01-05T10:00:22;16.85;;;2.45;;
42186;SDS011;27858;51.414;0.018;2023-01-05T10:02:56;8.75;;;1.95;;
42186;SDS011;27858;51.414;0.018;2023-01-05T10:05:27;13.90;;;2.40;;
42186;SDS011;27858;51.414;0.018;2023-01-05T10:07:58;8.32;;;2.45;;
42186;SDS011;27858;51.414;0.018;2023-01-05T10:13:03;7.75;;;2.60;;
42186;SDS011;27858;51.414;0.018;2023-01-05T10:15:36;10.88;;;2.20;;
42186;SDS011;27858;51.414;0.018;2023-01-05T10:18:08;9.80;;;1.83;;
42186;SDS011;27858;51.414;0.018;2023-01-05T10:28:42;5.57;;;2.63;;
42186;SDS011;27858;51.414;0.018;2023-01-05T10:31:20;10.15;;;2.33;;
42186;SDS011;27858;51.414;0.018;2023-01-05T10:33:53;5.93;;;1.60;;
42186;SDS011;27858;51.414;0.018;2023-01-05T10:42:07;10.50;;;1.83;;
42186;SDS011;27858;51.414;0.018;2023-01-05T10:44:54;7.88;;;2.00;;
42186;SDS011;27858;51.414;0.018;2023-01-05T10:47:25;7.20;;;1.40;;
42186;SDS011;27858;51.414;0.018;2023-01-05T10:49:54;3.78;;;1.33;;
42186;SDS011;27858;51.414;0.018;2023-01-05T10:52:21;4.78;;;1.42;;
42186;SDS011;27858;51.414;0.018;2023-01-05T10:54:58;4.05;;;1.42;;
42186;SDS011;27858;51.414;0.018;2023-01-05T11:00:06;5.25;;;1.20;;
42186;SDS011;27858;51.414;0.018;2023-01-05T11:05:45;4.40;;;1.85;;
42186;SDS011;27858;51.414;0.018;2023-01-05T11:07:53;2.70;;;1.20;;
42186;SDS011;27858;51.414;0.018;2023-01-05T11:10:27;1.40;;;0.90;;
42186;SDS011;27858;51.414;0.018;2023-01-05T11:13:08;3.42;;;1.42;;
42186;SDS011;27858;51.414;0.018;2023-01-05T11:16:21;2.78;;;1.15;;
42186;SDS011;27858;51.414;0.018;2023-01-05T11:21:22;2.80;;;1.00;;
42186;SDS011;27858;51.414;0.018;2023-01-05T11:23:51;5.63;;;1.85;;
42186;SDS011;27858;51.414;0.018;2023-01-05T11:26:21;3.03;;;1.00;;
42186;SDS011;27858;51.414;0.018;2023-01-05T11:31:21;2.80;;;0.80;;
42186;SDS011;27858;51.414;0.018;2023-01-05T11:33:54;1.77;;;1.00;;
42186;SDS011;27858;51.414;0.018;2023-01-05T11:36:23;2.80;;;1.30;;
42186;SDS011;27858;51.414;0.018;2023-01-05T11:38:52;3.13;;;1.45;;
42186;SDS011;27858;51.414;0.018;2023-01-05T11:41:21;0.90;;;0.68;;
42186;SDS011;27858;51.414;0.018;2023-01-05T11:43:49;1.30;;;0.70;;
42186;SDS011;27858;51.414;0.018;2023-01-05T11:46:19;4.35;;;1.02;;
42186;SDS011;27858;51.414;0.018;2023-01-05T11:48:54;2.90;;;0.73;;
42186;SDS011;27858;51.414;0.018;2023-01-05T11:51:33;2.53;;;1.27;;
42186;SDS011;27858;51.414;0.018;2023-01-05T11:54:02;4.60;;;1.20;;
42186;SDS011;27858;51.414;0.018;2023-01-05T11:56:29;2.05;;;1.10;;
42186;SDS011;27858;51.414;0.018;2023-01-05T11:58:56;3.22;;;1.40;;
42186;SDS011;27858;51.414;0.018;2023-01-05T12:04:15;4.35;;;1.30;;
42186;SDS011;27858;51.414;0.018;2023-01-05T12:09:35;2.03;;;0.98;;
42186;SDS011;27858;51.414;0.018;2023-01-05T12:17:28;3.15;;;0.90;;
42186;SDS011;27858;51.414;0.018;2023-01-05T12:23:01;2.88;;;1.60;;
42186;SDS011;27858;51.414;0.018;2023-01-05T12:25:42;3.35;;;1.38;;
42186;SDS011;27858;51.414;0.018;2023-01-05T12:31:44;3.70;;;1.58;;
42186;SDS011;27858;51.414;0.018;2023-01-05T12:40:16;4.43;;;1.55;;
42186;SDS011;27858;51.414;0.018;2023-01-05T12:43:08;6.07;;;1.02;;
42186;SDS011;27858;51.414;0.018;2023-01-05T12:48:52;5.47;;;1.45;;
42186;SDS011;27858;51.414;0.018;2023-01-05T12:51:28;6.20;;;1.95;;
42186;SDS011;27858;51.414;0.018;2023-01-05T12:57:06;2.40;;;0.93;;
42186;SDS011;27858;51.414;0.018;2023-01-05T12:59:38;6.95;;;2.03;;
42186;SDS011;27858;51.414;0.018;2023-01-05T13:05:09;6.13;;;1.83;;
42186;SDS011;27858;51.414;0.018;2023-01-05T13:12:49;5.07;;;1.40;;
42186;SDS011;27858;51.414;0.018;2023-01-05T13:15:23;7.55;;;1.42;;
42186;SDS011;27858;51.414;0.018;2023-01-05T13:18:04;5.32;;;1.98;;
42186;SDS011;27858;51.414;0.018;2023-01-05T13:21:14;3.88;;;1.25;;
42186;SDS011;27858;51.414;0.018;2023-01-05T13:23:46;4.97;;;1.35;;
42186;SDS011;27858;51.414;0.018;2023-01-05T13:26:19;5.20;;;1.55;;
42186;SDS011;27858;51.414;0.018;2023-01-05T13:28:53;6.88;;;1.83;;
42186;SDS011;27858;51.414;0.018;2023-01-05T13:34:32;2.15;;;1.42;;
42186;SDS011;27858;51.414;0.018;2023-01-05T13:54:21;4.22;;;1.52;;
42186;SDS011;27858;51.414;0.018;2023-01-05T13:59:28;4.75;;;1.75;;
42186;SDS011;27858;51.414;0.018;2023-01-05T14:04:51;9.30;;;2.42;;
42186;SDS011;27858;51.414;0.018;2023-01-05T14:07:18;8.88;;;1.20;;
42186;SDS011;27858;51.414;0.018;2023-01-05T14:09:46;6.07;;;2.13;;
42186;SDS011;27858;51.414;0.018;2023-01-05T14:14:57;9.88;;;2.30;;
42186;SDS011;27858;51.414;0.018;2023-01-05T14:33:51;5.43;;;2.30;;
42186;SDS011;27858;51.414;0.018;2023-01-05T14:36:36;8.93;;;2.30;;
42186;SDS011;27858;51.414;0.018;2023-01-05T14:39:20;8.27;;;1.80;;
42186;SDS011;27858;51.414;0.018;2023-01-05T14:44:30;4.50;;;1.55;;
42186;SDS011;27858;51.414;0.018;2023-01-05T14:47:06;11.38;;;2.42;;
42186;SDS011;27858;51.414;0.018;2023-01-05T14:49:39;10.20;;;3.00;;
42186;SDS011;27858;51.414;0.018;2023-01-05T14:52:17;17.70;;;3.92;;
42186;SDS011;27858;51.414;0.018;2023-01-05T14:57:52;11.90;;;2.92;;
42186;SDS011;27858;51.414;0.018;2023-01-05T15:00:25;8.10;;;2.53;;
42186;SDS011;27858;51.414;0.018;2023-01-05T15:03:17;12.88;;;2.38;;
42186;SDS011;27858;51.414;0.018;2023-01-05T15:05:57;12.77;;;3.38;;
42186;SDS011;27858;51.414;0.018;2023-01-05T15:17:32;10.85;;;2.85;;
42186;SDS011;27858;51.414;0.018;2023-01-05T15:20:24;17.40;;;2.95;;
42186;SDS011;27858;51.414;0.018;2023-01-05T15:23:16;19.60;;;3.95;;
42186;SDS011;27858;51.414;0.018;2023-01-05T15:32:06;13.68;;;2.65;;
42186;SDS011;27858;51.414;0.018;2023-01-05T15:34:37;9.45;;;2.95;;
42186;SDS011;27858;51.414;0.018;2023-01-05T15:37:28;12.45;;;3.35;;
42186;SDS011;27858;51.414;0.018;2023-01-05T15:40:00;9.75;;;3.45;;
42186;SDS011;27858;51.414;0.018;2023-01-05T15:44:58;15.43;;;2.25;;
42186;SDS011;27858;51.414;0.018;2023-01-05T15:47:26;7.13;;;2.47;;
42186;SDS011;27858;51.414;0.018;2023-01-05T15:49:55;16.63;;;3.60;;
42186;SDS011;27858;51.414;0.018;2023-01-05T15:52:33;6.35;;;2.42;;
42186;SDS011;27858;51.414;0.018;2023-01-05T15:55:03;19.67;;;2.17;;
42186;SDS011;27858;51.414;0.018;2023-01-05T15:57:38;7.45;;;3.42;;
42186;SDS011;27858;51.414;0.018;2023-01-05T16:00:16;20.60;;;3.42;;
42186;SDS011;27858;51.414;0.018;2023-01-05T16:02:45;6.05;;;2.45;;
42186;SDS011;27858;51.414;0.018;2023-01-05T16:05:15;7.45;;;2.28;;
42186;SDS011;27858;51.414;0.018;2023-01-05T16:07:59;10.52;;;3.45;;
42186;SDS011;27858;51.414;0.018;2023-01-05T16:10:37;15.85;;;2.70;;
42186;SDS011;27858;51.414;0.018;2023-01-05T16:13:12;7.97;;;2.13;;
42186;SDS011;27858;51.414;0.018;2023-01-05T16:15:44;9.02;;;2.67;;
42186;SDS011;27858;51.414;0.018;2023-01-05T16:18:21;6.97;;;1.88;;
42186;SDS011;27858;51.414;0.018;2023-01-05T16:20:52;12.02;;;2.88;;
42186;SDS011;27858;51.414;0.018;2023-01-05T16:25:59;6.35;;;1.70;;
42186;SDS011;27858;51.414;0.018;2023-01-05T16:28:26;15.63;;;2.78;;
42186;SDS011;27858;51.414;0.018;2023-01-05T16:30:53;13.18;;;1.65;;
42186;SDS011;27858;51.414;0.018;2023-01-05T16:33:30;9.18;;;2.10;;
42186;SDS011;27858;51.414;0.018;2023-01-05T16:36:11;6.72;;;2.38;;
42186;SDS011;27858;51.414;0.018;2023-01-05T16:38:43;12.38;;;2.55;;
42186;SDS011;27858;51.414;0.018;2023-01-05T16:41:11;4.95;;;2.17;;
42186;SDS011;27858;51.414;0.018;2023-01-05T16:43:48;12.80;;;2.13;;
42186;SDS011;27858;51.414;0.018;2023-01-05T16:48:49;7.75;;;2.05;;
42186;SDS011;27858;51.414;0.018;2023-01-05T16:53:56;8.30;;;1.55;;
42186;SDS011;27858;51.414;0.018;2023-01-05T16:58:58;4.97;;;2.00;;
42186;SDS011;27858;51.414;0.018;2023-01-05T17:01:36;7.15;;;1.83;;
42186;SDS011;27858;51.414;0.018;2023-01-05T17:04:11;8.20;;;1.25;;
42186;SDS011;27858;51.414;0.018;2023-01-05T17:06:40;9.00;;;1.67;;
42186;SDS011;27858;51.414;0.018;2023-01-05T17:09:21;5.47;;;1.73;;
42186;SDS011;27858;51.414;0.018;2023-01-05T17:11:54;8.80;;;1.45;;
42186;SDS011;27858;51.414;0.018;2023-01-05T17:14:22;5.25;;;2.10;;
42186;SDS011;27858;51.414;0.018;2023-01-05T17:16:51;4.93;;;2.25;;
42186;SDS011;27858;51.414;0.018;2023-01-05T17:19:19;4.45;;;1.70;;
42186;SDS011;27858;51.414;0.018;2023-01-05T17:21:52;3.90;;;1.08;;
42186;SDS011;27858;51.414;0.018;2023-01-05T17:24:21;11.18;;;1.75;;
42186;SDS011;27858;51.414;0.018;2023-01-05T17:26:48;5.38;;;1.15;;
42186;SDS011;27858;51.414;0.018;2023-01-05T17:29:20;9.63;;;1.92;;
42186;SDS011;27858;51.414;0.018;2023-01-05T17:31:55;11.55;;;2.28;;
42186;SDS011;27858;51.414;0.018;2023-01-05T17:34:22;4.00;;;1.50;;
42186;SDS011;27858;51.414;0.018;2023-01-05T17:36:51;15.07;;;2.22;;
42186;SDS011;27858;51.414;0.018;2023-01-05T17:39:20;6.55;;;1.75;;
42186;SDS011;27858;51.414;0.018;2023-01-05T17:41:47;6.35;;;1.90;;
42186;SDS011;27858;51.414;0.018;2023-01-05T17:44:14;9.73;;;1.95;;
42186;SDS011;27858;51.414;0.018;2023-01-05T17:46:42;4.22;;;1.58;;
42186;SDS011;27858;51.414;0.018;2023-01-05T17:49:14;6.43;;;1.90;;
42186;SDS011;27858;51.414;0.018;2023-01-05T17:51:42;9.68;;;1.80;;
42186;SDS011;27858;51.414;0.018;2023-01-05T17:54:09;6.32;;;1.58;;
42186;SDS011;27858;51.414;0.018;2023-01-05T17:56:37;4.65;;;2.20;;
42186;SDS011;27858;51.414;0.018;2023-01-05T17:59:04;6.22;;;2.08;;
42186;SDS011;27858;51.414;0.018;2023-01-05T18:01:31;6.22;;;1.63;;
42186;SDS011;27858;51.414;0.018;2023-01-05T18:04:01;9.35;;;1.60;;
42186;SDS011;27858;51.414;0.018;2023-01-05T18:06:28;6.80;;;1.40;;
42186;SDS011;27858;51.414;0.018;2023-01-05T18:08:55;9.00;;;3.28;;
42186;SDS011;27858;51.414;0.018;2023-01-05T18:11:22;9.15;;;2.55;;
42186;SDS011;27858;51.414;0.018;2023-01-05T18:13:49;5.10;;;1.50;;
42186;SDS011;27858;51.414;0.018;2023-01-05T18:16:15;5.97;;;1.35;;
42186;SDS011;27858;51.414;0.018;2023-01-05T18:18:42;4.65;;;1.60;;
42186;SDS011;27858;51.414;0.018;2023-01-05T18:21:09;5.20;;;1.73;;
42186;SDS011;27858;51.414;0.018;2023-01-05T18:23:36;1.80;;;0.98;;
42186;SDS011;27858;51.414;0.018;2023-01-05T18:26:04;7.78;;;2.50;;
42186;SDS011;27858;51.414;0.018;2023-01-05T18:28:32;7.88;;;1.90;;
42186;SDS011;27858;51.414;0.018;2023-01-05T18:30:59;4.93;;;0.90;;
42186;SDS011;27858;51.414;0.018;2023-01-05T18:33:26;5.53;;;1.20;;
42186;SDS011;27858;51.414;0.018;2023-01-05T18:35:53;3.70;;;1.30;;
42186;SDS011;27858;51.414;0.018;2023-01-05T18:38:25;5.73;;;1.63;;
42186;SDS011;27858;51.414;0.018;2023-01-05T18:40:51;6.00;;;2.08;;
42186;SDS011;27858;51.414;0.018;2023-01-05T18:43:18;5.28;;;1.00;;
42186;SDS011;27858;51.414;0.018;2023-01-05T18:45:45;5.05;;;1.42;;
42186;SDS011;27858;51.414;0.018;2023-01-05T18:48:19;2.33;;;0.75;;
42186;SDS011;27858;51.414;0.018;2023-01-05T18:50:46;3.42;;;0.65;;
42186;SDS011;27858;51.414;0.018;2023-01-05T18:53:16;4.35;;;1.02;;
42186;SDS011;27858;51.414;0.018;2023-01-05T18:55:44;2.05;;;1.13;;
42186;SDS011;27858;51.414;0.018;2023-01-05T18:58:11;2.78;;;0.80;;
42186;SDS011;27858;51.414;0.018;2023-01-05T19:00:42;5.15;;;1.35;;
42186;SDS011;27858;51.414;0.018;2023-01-05T19:03:09;4.43;;;1.30;;
42186;SDS011;27858;51.414;0.018;2023-01-05T19:05:37;6.03;;;2.03;;
42186;SDS011;27858;51.414;0.018;2023-01-05T19:08:08;7.22;;;1.15;;
42186;SDS011;27858;51.414;0.018;2023-01-05T19:10:36;5.97;;;2.08;;
42186;SDS011;27858;51.414;0.018;2023-01-05T19:13:03;4.60;;;1.48;;
42186;SDS011;27858;51.414;0.018;2023-01-05T19:15:31;4.15;;;1.30;;
42186;SDS011;27858;51.414;0.018;2023-01-05T19:17:59;6.10;;;1.13;;
42186;SDS011;27858;51.414;0.018;2023-01-05T19:20:26;6.05;;;2.20;;
42186;SDS011;27858;51.414;0.018;2023-01-05T19:22:52;3.45;;;1.33;;
42186;SDS011;27858;51.414;0.018;2023-01-05T19:25:19;4.90;;;1.38;;
42186;SDS011;27858;51.414;0.018;2023-01-05T19:27:46;5.07;;;1.52;;
42186;SDS011;27858;51.414;0.018;2023-01-05T19:30:13;6.22;;;2.03;;
42186;SDS011;27858;51.414;0.018;2023-01-05T19:32:42;3.70;;;1.13;;
42186;SDS011;27858;51.414;0.018;2023-01-05T19:35:08;8.25;;;1.73;;
42186;SDS011;27858;51.414;0.018;2023-01-05T19:37:35;4.07;;;1.63;;
42186;SDS011;27858;51.414;0.018;2023-01-05T19:40:04;9.25;;;2.05;;
42186;SDS011;27858;51.414;0.018;2023-01-05T19:42:31;9.10;;;1.75;;
42186;SDS011;27858;51.414;0.018;2023-01-05T19:44:58;4.03;;;0.95;;
42186;SDS011;27858;51.414;0.018;2023-01-05T19:47:25;5.75;;;1.63;;
42186;SDS011;27858;51.414;0.018;2023-01-05T19:49:51;10.25;;;1.75;;
42186;SDS011;27858;51.414;0.018;2023-01-05T19:52:18;10.73;;;2.05;;
42186;SDS011;27858;51.414;0.018;2023-01-05T19:54:45;8.70;;;2.42;;
42186;SDS011;27858;51.414;0.018;2023-01-05T19:57:12;5.57;;;1.35;;
42186;SDS011;27858;51.414;0.018;2023-01-05T19:59:39;9.18;;;1.85;;
42186;SDS011;27858;51.414;0.018;2023-01-05T20:02:06;6.90;;;1.52;;
42186;SDS011;27858;51.414;0.018;2023-01-05T20:04:33;4.72;;;1.98;;
42186;SDS011;27858;51.414;0.018;2023-01-05T20:06:59;7.05;;;2.00;;
42186;SDS011;27858;51.414;0.018;2023-01-05T20:09:29;2.97;;;1.20;;
42186;SDS011;27858;51.414;0.018;2023-01-05T20:11:56;17.10;;;2.75;;
42186;SDS011;27858;51.414;0.018;2023-01-05T20:14:38;6.38;;;2.17;;
42186;SDS011;27858;51.414;0.018;2023-01-05T20:17:07;3.15;;;1.30;;
42186;SDS011;27858;51.414;0.018;2023-01-05T20:19:35;5.65;;;1.80;;
42186;SDS011;27858;51.414;0.018;2023-01-05T20:22:04;5.82;;;1.67;;
42186;SDS011;27858;51.414;0.018;2023-01-05T20:24:33;8.40;;;2.08;;
42186;SDS011;27858;51.414;0.018;2023-01-05T20:27:03;4.30;;;1.50;;
42186;SDS011;27858;51.414;0.018;2023-01-05T20:29:32;9.23;;;2.10;;
42186;SDS011;27858;51.414;0.018;2023-01-05T20:32:03;5.93;;;1.65;;
42186;SDS011;27858;51.414;0.018;2023-01-05T20:34:33;8.20;;;2.42;;
42186;SDS011;27858;51.414;0.018;2023-01-05T20:37:02;10.25;;;1.83;;
42186;SDS011;27858;51.414;0.018;2023-01-05T20:39:32;5.90;;;1.67;;
42186;SDS011;27858;51.414;0.018;2023-01-05T20:42:00;7.95;;;2.15;;
42186;SDS011;27858;51.414;0.018;2023-01-05T20:44:30;7.70;;;2.63;;
42186;SDS011;27858;51.414;0.018;2023-01-05T20:46:59;4.47;;;1.13;;
42186;SDS011;27858;51.414;0.018;2023-01-05T20:49:28;7.25;;;1.80;;
42186;SDS011;27858;51.414;0.018;2023-01-05T20:51:55;10.70;;;2.05;;
42186;SDS011;27858;51.414;0.018;2023-01-05T20:54:23;8.90;;;1.83;;
42186;SDS011;27858;51.414;0.018;2023-01-05T20:56:50;6.03;;;2.05;;
42186;SDS011;27858;51.414;0.018;2023-01-05T20:59:21;8.15;;;1.90;;
42186;SDS011;27858;51.414;0.018;2023-01-05T21:01:50;6.95;;;1.30;;
42186;SDS011;27858;51.414;0.018;2023-01-05T21:04:17;6.82;;;2.08;;
42186;SDS011;27858;51.414;0.018;2023-01-05T21:06:44;8.32;;;2.30;;
42186;SDS011;27858;51.414;0.018;2023-01-05T21:09:12;5.60;;;1.92;;
42186;SDS011;27858;51.414;0.018;2023-01-05T21:11:39;4.38;;;1.17;;
42186;SDS011;27858;51.414;0.018;2023-01-05T21:14:07;8.75;;;2.42;;
42186;SDS011;27858;51.414;0.018;2023-01-05T21:16:38;6.60;;;1.60;;
42186;SDS011;27858;51.414;0.018;2023-01-05T21:19:08;5.50;;;1.27;;
42186;SDS011;27858;51.414;0.018;2023-01-05T21:21:37;7.90;;;1.75;;
42186;SDS011;27858;51.414;0.018;2023-01-05T21:24:03;7.90;;;2.00;;